KLGD

La Grande / Union County Airport

La Grande, Oregon, USA
METAR KLGD 191656Z AUTO 14017G31KT 10SM OVC017 04/01 A3018 RMK AO2 PK WND 13031/1649 RAE00 SLP355 P0000 T00390006
Observed Flight Rules
Jan-19 @ 16:56 UTC (10 minutes ago) Marginal Visual Flight Rules
Wind Visibility Clouds
140° at 17 knots
 Gusting to 31 knots
10 miles
  • Overcast at 1,700' AGL
Temperatures Readings Precipitation
Current 4°C / 39°F
Dewpoint 1°C / 34°F
Humidity 81%
Altimeter 30.18" Hg
Pressure 1035.5 hPa
Elevation 827
Current Rain 0.01
METAR KLGD 191656Z AUTO 14017G31KT 10SM OVC017 04/01 A3018 RMK AO2 PK WND 13031/1649 RAE00 SLP355 P0000 T00390006
Observed Flight Rules
Jan-19 @ 16:56 UTC
(10 minutes ago)
MVFR
Wind Visibility
140° at 17 knots
 Gusting to 31 knots
10 miles
Clouds
  • Overcast at 1,700' AGL
Temperature Dewpoint
4°C / 39°F 1°C / 34°F
Humidity Altimeter Pressure
81% 30.18" Hg 1035.5 hPa
Current Rain
0.01